Adel, Georgia
Current Conditions -  °F | °C
As of 6:58 AM on Thursday 23 Oct 2014 (Local Time) from KVAD Reporting Station
Clear Clear  
Wind Chill: 42°   Ceiling: Unl
Heat Index: 47°   Visibility: 10mi
Dew Point: 43°   Wind: 9mph
Humidity: 85%   Direction: 50°NE
Pressure: 30.06"   Gusts: NA
Location:  31.14°N, 83.42°W
Report Text: KVAD 231058Z AUTO 05008KT 10SM CLR 08/06 A3006 RMK AO2 SLP182 T00820059 $
Loading
Personal Weather Stations






























Interactive Weather Map
Tropical Storm Tracking
New forecast layout! Learn more

10-Day Weather Forecast

Advertisements
Track Severe Weather on mobile